Farnborough, United Kingdom

6:25 PM BST on October 02, 2014 (GMT +0100)
Farnborough | Change Station
CLOSE
Current Station
Airport
Location: Farnborough,
Elevation: 213 ft
Nearby Weather Stations

Elev 213 ft 51.28 °N, 0.77 °W | Updated 5 minutes ago

Partly Cloudy
Partly Cloudy
64 °F
Feels Like 64 °F
N
8
Wind Variable Wind from SSW

Today
High -- | Low -- °F
--% Chance of Precip.
Yesterday
High -- | Low -- °F
Precip. -- in
7:05 AM 6:39 PM
First Quarter, 60% visible
Pressure 30.33 in
Visibility 6.2 miles
Clouds Few 3300 ft
Dew Point 55 °F
Humidity 73%
Rainfall 0.00 in
Snow Depth Not available.
UV 0 out of 12
Pollen Not available.
Air Quality Not available.
Flu Activity Not available.
METAR EGLF 021720Z 21007KT 9999 FEW033 18/13 Q1027

More Conditions Fewer Conditions

Pressure 30.33 in
Visibility 6.2 miles
Clouds Few 3300 ft
Dew Point 55 °F
Humidity 73%
Rainfall 0.00 in
Snow Depth Not available.
UV 0 out of 12
Pollen Not available.
Air Quality Not available.
Flu Activity Not available.
METAR EGLF 021720Z 21007KT 9999 FEW033 18/13 Q1027

More Conditions Fewer Conditions

10-Day Weather Forecast

Almanac

Astronomy

Oct. 02, 2014 Rise Set
Actual Time 7:05 AM BST 6:39 PM BST
Civil Twilight 6:31 AM BST 7:12 PM BST
Nautical Twilight 5:53 AM BST 7:50 PM BST
Astronomical Twilight 5:13 AM BST 8:29 PM BST
Moon 3:09 PM BST No Moon Set
Length of Visible Light 12h 40m
Length of Day
11h 34m
Tomorrow will be 3m 52s shorter.
First Quarter, 60% of the Moon is Illuminated
Today
First Quarter
Oct 8
Full
Oct 15
Last Quarter
Oct 23
New
Oct 30
First Quarter

Today's Extremes

Country Highs Country Lows

Community

WunderPhotos

Upload Photos

1,758,304 photos uploaded!

Nearby

Snow Depth

Not available.

Earthquake Activity

City Distance Mag. Time & Date
No recent earthquake activity has been reported nearby.
Minimum magnitude displayed is 2.5.

Coastal Water Temperatures

Place Temperature
No Stations Reporting

Nearby Weather Stations